createdAt,value
2023-03-03T00:00:54.855Z,6.11
2023-03-03T00:03:03.353Z,6.05
2023-03-03T00:05:07.989Z,6.04
2023-03-03T00:07:11.507Z,6.00
2023-03-03T00:09:12.979Z,5.98
2023-03-03T00:11:14.627Z,5.95
2023-03-03T00:13:18.608Z,5.94
2023-03-03T00:15:23.192Z,5.89
2023-03-03T00:17:29.948Z,5.85
2023-03-03T00:19:39.918Z,5.85
2023-03-03T00:21:45.065Z,5.81
2023-03-03T00:23:47.261Z,5.77
2023-03-03T00:25:53.709Z,5.73
2023-03-03T00:27:55.465Z,5.71
2023-03-03T00:29:59.578Z,5.68
2023-03-03T00:32:10.749Z,5.65
2023-03-03T00:34:18.496Z,5.62
2023-03-03T00:36:39.045Z,5.57
2023-03-03T00:38:40.942Z,5.54
2023-03-03T00:40:42.671Z,5.52
2023-03-03T00:42:51.740Z,5.48
2023-03-03T00:45:00.308Z,5.43
2023-03-03T00:47:19.014Z,5.42
2023-03-03T00:49:27.224Z,5.41
2023-03-03T00:51:34.411Z,5.38
2023-03-03T00:53:36.290Z,5.39
2023-03-03T00:55:38.188Z,5.37
2023-03-03T00:57:39.967Z,5.34
2023-03-03T00:59:44.458Z,5.31
2023-03-03T01:01:46.126Z,5.29
2023-03-03T01:03:48.107Z,5.27
2023-03-03T01:05:50.874Z,5.24
2023-03-03T01:07:52.493Z,5.22
2023-03-03T01:09:53.986Z,5.20
2023-03-03T01:11:56.218Z,5.16
2023-03-03T01:13:58.037Z,5.14
2023-03-03T01:16:03.248Z,5.14
2023-03-03T01:18:04.907Z,5.11
2023-03-03T01:20:13.923Z,5.10
2023-03-03T01:22:16.038Z,5.09
2023-03-03T01:24:17.640Z,5.04
2023-03-03T01:26:19.207Z,5.02
2023-03-03T01:28:20.947Z,4.99
2023-03-03T01:30:23.402Z,5.00
2023-03-03T01:32:25.952Z,4.97
2023-03-03T01:34:27.497Z,4.98
2023-03-03T01:36:29.574Z,4.96
2023-03-03T01:38:31.859Z,4.96
2023-03-03T01:40:33.516Z,4.93
2023-03-03T01:42:37.000Z,4.91
2023-03-03T01:44:38.574Z,4.88
2023-03-03T01:46:46.699Z,4.84
2023-03-03T01:48:48.523Z,4.85
2023-03-03T01:51:19.014Z,4.81
2023-03-03T01:53:41.734Z,4.78
2023-03-03T01:55:45.185Z,4.76
2023-03-03T01:57:53.052Z,4.75
2023-03-03T01:59:56.934Z,4.74
2023-03-03T02:01:58.872Z,4.72
2023-03-03T02:04:02.700Z,4.72
2023-03-03T02:06:08.192Z,4.69
2023-03-03T02:08:12.828Z,4.65
2023-03-03T02:10:17.475Z,4.64
2023-03-03T02:12:22.548Z,4.62
2023-03-03T02:14:25.139Z,4.58
2023-03-03T02:16:27.036Z,4.57
2023-03-03T02:18:28.928Z,4.57
2023-03-03T02:20:33.317Z,4.55
2023-03-03T02:22:44.491Z,4.52
2023-03-03T02:24:57.459Z,4.46
2023-03-03T02:26:59.146Z,4.45
2023-03-03T02:29:04.074Z,4.43
2023-03-03T02:31:13.046Z,4.43
2023-03-03T02:33:15.727Z,4.41
2023-03-03T02:35:29.705Z,4.39
2023-03-03T02:37:31.612Z,4.38
2023-03-03T02:39:33.288Z,4.35
2023-03-03T02:41:46.814Z,4.33
2023-03-03T02:43:59.033Z,4.31
2023-03-03T02:46:01.273Z,4.30
2023-03-03T02:48:02.788Z,4.27
2023-03-03T02:50:04.878Z,4.26
2023-03-03T02:52:09.895Z,4.23
2023-03-03T02:54:15.367Z,4.21
2023-03-03T02:56:16.892Z,4.21
2023-03-03T02:58:18.949Z,4.16
2023-03-03T03:00:22.350Z,4.14
2023-03-03T03:02:24.485Z,4.12
2023-03-03T03:04:27.962Z,4.11
2023-03-03T03:06:30.194Z,4.10
2023-03-03T03:08:31.835Z,4.07
2023-03-03T03:10:33.790Z,4.04
2023-03-03T03:12:35.614Z,4.03
2023-03-03T03:14:37.261Z,4.02
2023-03-03T03:16:41.041Z,4.00
2023-03-03T03:18:42.640Z,3.97
2023-03-03T03:20:46.136Z,3.96
2023-03-03T03:22:48.586Z,3.95
2023-03-03T03:24:50.185Z,3.88
2023-03-03T03:26:51.817Z,3.90
2023-03-03T03:28:54.919Z,3.89
2023-03-03T03:30:56.824Z,3.87
2023-03-03T03:32:58.403Z,3.84
2023-03-03T03:35:00.139Z,3.78
2023-03-03T03:37:02.045Z,3.77
2023-03-03T03:39:06.320Z,3.76
2023-03-03T03:41:13.042Z,3.73
2023-03-03T03:43:14.928Z,3.72
2023-03-03T03:45:16.726Z,3.72
2023-03-03T03:47:21.128Z,3.69
2023-03-03T03:49:22.876Z,3.66
2023-03-03T03:51:27.510Z,3.65
2023-03-03T03:53:29.150Z,3.64
2023-03-03T03:55:30.998Z,3.64
2023-03-03T03:57:33.127Z,3.60
2023-03-03T03:59:34.836Z,3.58
2023-03-03T04:01:36.473Z,3.55
2023-03-03T04:03:38.359Z,3.55
2023-03-03T04:05:44.555Z,3.55
2023-03-03T04:07:46.743Z,3.51
2023-03-03T04:09:50.163Z,3.51
2023-03-03T04:11:52.052Z,3.50
2023-03-03T04:13:53.848Z,3.47
2023-03-03T04:15:56.356Z,3.45
2023-03-03T04:17:58.100Z,3.44
2023-03-03T04:20:00.858Z,3.42
2023-03-03T04:22:02.792Z,3.40
2023-03-03T04:24:05.772Z,3.41
2023-03-03T04:26:09.124Z,3.41
2023-03-03T04:28:11.257Z,3.38
2023-03-03T04:30:15.239Z,3.36
2023-03-03T04:32:19.296Z,3.34
2023-03-03T04:34:22.296Z,3.33
2023-03-03T04:36:23.928Z,3.30
2023-03-03T04:38:26.203Z,3.28
2023-03-03T04:40:29.542Z,3.26
2023-03-03T04:42:31.604Z,3.25
2023-03-03T04:44:33.547Z,3.25
2023-03-03T04:46:35.733Z,3.22
2023-03-03T04:48:38.958Z,3.20
2023-03-03T04:50:42.436Z,3.19
2023-03-03T04:52:44.271Z,3.18
2023-03-03T04:54:47.635Z,3.15
2023-03-03T04:56:49.420Z,3.16
2023-03-03T04:58:52.333Z,3.15
2023-03-03T05:00:55.931Z,3.13
2023-03-03T05:02:59.486Z,3.13
2023-03-03T05:05:01.268Z,3.09
2023-03-03T05:07:03.260Z,3.06
2023-03-03T05:09:04.791Z,3.05
2023-03-03T05:11:06.751Z,3.04
2023-03-03T05:13:09.501Z,3.03
2023-03-03T05:15:11.231Z,3.03
2023-03-03T05:17:12.828Z,3.02
2023-03-03T05:19:14.522Z,3.03
2023-03-03T05:21:16.172Z,3.00
2023-03-03T05:23:18.898Z,3.01
2023-03-03T05:25:21.839Z,2.99
2023-03-03T05:27:23.748Z,2.97
2023-03-03T05:29:26.251Z,2.97
2023-03-03T05:31:27.997Z,2.96
2023-03-03T05:33:29.552Z,2.94
2023-03-03T05:35:31.318Z,2.93
2023-03-03T05:37:32.995Z,2.92
2023-03-03T05:39:35.286Z,2.93
2023-03-03T05:41:37.049Z,2.89
2023-03-03T05:43:38.597Z,2.87
2023-03-03T05:45:40.529Z,2.87
2023-03-03T05:47:42.600Z,2.88
2023-03-03T05:49:44.235Z,2.87
2023-03-03T05:51:45.923Z,2.86
2023-03-03T05:53:47.617Z,2.85
2023-03-03T05:55:49.980Z,2.84
2023-03-03T05:57:51.827Z,2.85
2023-03-03T05:59:53.387Z,2.85
2023-03-03T06:01:55.073Z,2.82
2023-03-03T06:03:56.723Z,2.83
2023-03-03T06:05:58.483Z,2.82
2023-03-03T06:08:00.122Z,2.82
2023-03-03T06:10:01.955Z,2.78
2023-03-03T06:12:09.778Z,2.80
2023-03-03T06:14:11.563Z,2.78
2023-03-03T06:16:13.394Z,2.79
2023-03-03T06:18:15.178Z,2.77
2023-03-03T06:20:16.865Z,2.76
2023-03-03T06:22:19.065Z,2.75
2023-03-03T06:24:20.830Z,2.75
2023-03-03T06:26:23.089Z,2.73
2023-03-03T06:28:25.150Z,2.73
2023-03-03T06:30:28.353Z,2.72
2023-03-03T06:32:30.146Z,2.74
2023-03-03T06:34:31.830Z,2.74
2023-03-03T06:36:33.476Z,2.77
2023-03-03T06:38:35.168Z,2.79
2023-03-03T06:40:36.696Z,2.80
2023-03-03T06:42:38.308Z,2.83
2023-03-03T06:44:40.040Z,2.81
2023-03-03T06:46:41.649Z,2.83
2023-03-03T06:48:43.358Z,2.85
2023-03-03T06:50:44.880Z,2.86
2023-03-03T06:52:46.511Z,2.87
2023-03-03T06:54:48.254Z,2.91
2023-03-03T06:56:53.903Z,2.91
2023-03-03T06:58:58.270Z,2.94
2023-03-03T07:01:01.459Z,2.97
2023-03-03T07:03:12.337Z,2.97
2023-03-03T07:05:18.229Z,3.05
2023-03-03T07:07:25.797Z,3.07
2023-03-03T07:09:29.819Z,3.12
2023-03-03T07:11:31.533Z,3.18
2023-03-03T07:13:34.082Z,3.25
2023-03-03T07:15:36.038Z,3.35
2023-03-03T07:17:43.436Z,3.45
2023-03-03T07:19:46.368Z,3.59
2023-03-03T07:21:47.928Z,3.74
2023-03-03T07:23:52.058Z,3.90
2023-03-03T07:25:53.819Z,4.07
2023-03-03T07:28:00.967Z,4.25
2023-03-03T07:30:24.647Z,4.46
2023-03-03T07:32:34.314Z,4.67
2023-03-03T07:34:39.849Z,4.87
2023-03-03T07:36:41.876Z,5.06
2023-03-03T07:38:53.026Z,5.26
2023-03-03T07:40:56.958Z,5.47
2023-03-03T07:42:58.532Z,5.67
2023-03-03T07:45:34.739Z,5.94
2023-03-03T07:47:37.218Z,6.17
2023-03-03T07:49:39.043Z,6.38
2023-03-03T07:51:42.242Z,6.60
2023-03-03T07:53:44.045Z,6.80
2023-03-03T07:55:46.404Z,7.02
2023-03-03T07:57:51.957Z,7.22
2023-03-03T07:59:58.591Z,7.38
2023-03-03T08:02:00.568Z,7.55
2023-03-03T08:04:02.353Z,7.67
2023-03-03T08:06:35.846Z,7.81
2023-03-03T08:08:37.409Z,7.93
2023-03-03T08:10:48.380Z,8.02
2023-03-03T08:12:50.111Z,8.11
2023-03-03T08:14:54.328Z,8.17
2023-03-03T08:16:57.630Z,8.23
2023-03-03T08:19:03.735Z,8.29
2023-03-03T08:21:16.570Z,8.32
2023-03-03T08:23:19.380Z,8.35
2023-03-03T08:25:21.032Z,8.37
2023-03-03T08:27:22.556Z,8.38
2023-03-03T08:29:24.742Z,8.40
2023-03-03T08:31:40.314Z,8.43
2023-03-03T08:33:42.542Z,8.44
2023-03-03T08:35:45.233Z,8.46
2023-03-03T08:37:46.912Z,8.49
2023-03-03T08:39:48.540Z,8.51
2023-03-03T08:41:50.551Z,8.56
2023-03-03T08:43:52.097Z,8.61
2023-03-03T08:45:58.178Z,8.64
2023-03-03T08:48:01.388Z,8.69
2023-03-03T08:50:03.342Z,8.75
2023-03-03T08:52:05.138Z,8.82
2023-03-03T08:54:07.320Z,8.87
2023-03-03T08:56:10.224Z,8.92
2023-03-03T08:58:12.110Z,8.95
2023-03-03T09:00:16.640Z,9.04
2023-03-03T09:02:18.220Z,9.10
2023-03-03T09:04:19.781Z,9.18
2023-03-03T09:06:21.292Z,9.28
2023-03-03T09:08:22.918Z,9.39
2023-03-03T09:10:29.353Z,9.52
2023-03-03T09:12:35.765Z,9.71
2023-03-03T09:14:37.489Z,9.93
2023-03-03T09:17:03.390Z,10.19
2023-03-03T09:19:25.849Z,10.51
2023-03-03T09:21:32.956Z,10.83
2023-03-03T09:23:36.934Z,11.13
2023-03-03T09:25:40.741Z,11.43
2023-03-03T09:27:43.485Z,11.74
2023-03-03T09:29:45.309Z,12.04
2023-03-03T09:31:55.786Z,12.36
2023-03-03T09:33:59.387Z,12.67
2023-03-03T09:36:12.514Z,12.97
2023-03-03T09:38:33.618Z,13.26
2023-03-03T09:41:00.902Z,13.60
2023-03-03T09:43:25.873Z,13.88
2023-03-03T09:46:06.945Z,14.18
2023-03-03T09:48:17.654Z,14.45
2023-03-03T09:50:56.444Z,14.69
2023-03-03T09:53:28.354Z,14.95
2023-03-03T09:55:57.997Z,15.19
2023-03-03T09:58:11.393Z,15.41
2023-03-03T10:00:46.762Z,15.62
2023-03-03T10:03:08.714Z,15.81
2023-03-03T10:05:30.049Z,16.01
2023-03-03T10:07:55.566Z,16.18
2023-03-03T10:10:12.432Z,16.34
2023-03-03T10:12:33.708Z,16.51
2023-03-03T10:14:44.607Z,16.66
2023-03-03T10:16:52.747Z,16.79
2023-03-03T10:19:15.478Z,16.91
2023-03-03T10:21:23.419Z,17.05
2023-03-03T10:23:36.912Z,17.17
2023-03-03T10:25:47.109Z,17.28
2023-03-03T10:28:13.517Z,17.38
2023-03-03T10:30:38.273Z,17.50
2023-03-03T10:33:22.336Z,17.61
2023-03-03T10:35:44.434Z,17.70
2023-03-03T10:37:54.435Z,17.82
2023-03-03T10:40:30.180Z,17.90
2023-03-03T10:43:00.628Z,17.99
2023-03-03T10:45:20.906Z,18.09
2023-03-03T10:47:53.890Z,18.16
2023-03-03T10:50:34.443Z,18.22
2023-03-03T10:52:42.600Z,18.32
2023-03-03T10:54:44.048Z,18.38
2023-03-03T10:57:16.033Z,18.46
2023-03-03T10:59:32.868Z,18.53
2023-03-03T11:02:02.141Z,18.61
2023-03-03T11:04:17.188Z,18.68
2023-03-03T11:06:40.695Z,18.74
2023-03-03T11:08:57.594Z,18.81
2023-03-03T11:11:18.196Z,18.89
2023-03-03T11:13:38.702Z,18.97
2023-03-03T11:15:50.121Z,19.02
2023-03-03T11:18:06.851Z,19.09
2023-03-03T11:20:42.608Z,19.14
2023-03-03T11:23:01.393Z,19.19
2023-03-03T11:25:08.796Z,19.23
2023-03-03T11:27:20.516Z,19.27
2023-03-03T11:29:45.330Z,19.30
2023-03-03T11:31:49.692Z,19.28
2023-03-03T11:34:06.669Z,19.30
2023-03-03T11:36:19.139Z,19.34
2023-03-03T11:38:52.899Z,19.33
2023-03-03T11:41:04.735Z,19.38
2023-03-03T11:43:36.732Z,19.39
2023-03-03T11:45:45.081Z,19.43
2023-03-03T11:48:01.054Z,19.45
2023-03-03T11:50:10.792Z,19.48
2023-03-03T11:52:22.063Z,19.49
2023-03-03T11:54:32.707Z,19.53
2023-03-03T11:56:42.953Z,19.56
2023-03-03T11:58:49.619Z,19.60
2023-03-03T12:00:58.609Z,19.63
2023-03-03T12:03:21.374Z,19.64
2023-03-03T12:05:38.674Z,19.67
2023-03-03T12:08:15.605Z,19.69
2023-03-03T12:10:28.848Z,19.71
2023-03-03T12:12:39.633Z,19.73
2023-03-03T12:15:02.617Z,19.74
2023-03-03T12:17:34.151Z,19.75
2023-03-03T12:19:44.663Z,19.79
2023-03-03T12:22:04.775Z,19.82
2023-03-03T12:24:11.149Z,19.86
2023-03-03T12:26:41.447Z,19.90
2023-03-03T12:28:55.302Z,19.94
2023-03-03T12:31:22.918Z,19.97
2023-03-03T12:33:49.594Z,20.01
2023-03-03T12:36:02.803Z,20.06
2023-03-03T12:38:31.088Z,20.10
2023-03-03T12:40:35.661Z,20.17
2023-03-03T12:43:09.372Z,20.21
2023-03-03T12:45:20.244Z,20.27
2023-03-03T12:47:29.595Z,20.35
2023-03-03T12:49:48.091Z,20.42
2023-03-03T12:52:18.037Z,20.47
2023-03-03T12:54:53.651Z,20.54
2023-03-03T12:57:02.025Z,20.61
2023-03-03T12:59:29.677Z,20.66
2023-03-03T13:01:36.937Z,20.68
2023-03-03T13:03:49.662Z,20.73
2023-03-03T13:06:15.558Z,20.77
2023-03-03T13:08:34.231Z,20.78
2023-03-03T13:10:38.884Z,20.82
2023-03-03T13:12:43.290Z,20.84
2023-03-03T13:14:56.801Z,20.85
2023-03-03T13:17:17.958Z,20.86
2023-03-03T13:19:30.803Z,20.94
2023-03-03T13:21:41.880Z,20.96
2023-03-03T13:24:05.581Z,20.99
2023-03-03T13:26:25.755Z,21.04
2023-03-03T13:29:12.592Z,21.08
2023-03-03T13:31:21.829Z,21.13
2023-03-03T13:33:31.035Z,21.17
2023-03-03T13:35:32.966Z,21.19
2023-03-03T13:37:52.578Z,21.20
2023-03-03T13:40:06.081Z,21.22
2023-03-03T13:42:28.294Z,21.22
2023-03-03T13:44:42.850Z,21.21
2023-03-03T13:46:50.234Z,21.21
2023-03-03T13:49:10.664Z,21.22
2023-03-03T13:51:35.714Z,21.18
2023-03-03T13:54:13.053Z,21.15
2023-03-03T13:56:29.872Z,21.11
2023-03-03T13:58:57.380Z,21.07
2023-03-03T14:01:06.650Z,21.04
2023-03-03T14:03:26.141Z,21.02
2023-03-03T14:05:48.680Z,20.96
2023-03-03T14:07:56.449Z,20.94
2023-03-03T14:10:25.577Z,20.89
2023-03-03T14:12:44.765Z,20.83
2023-03-03T14:15:05.215Z,20.81
2023-03-03T14:17:29.901Z,20.72
2023-03-03T14:19:36.928Z,20.67
2023-03-03T14:22:01.971Z,20.60
2023-03-03T14:24:18.425Z,20.52
2023-03-03T14:26:20.204Z,20.45
2023-03-03T14:28:24.945Z,20.38
2023-03-03T14:30:35.249Z,20.32
2023-03-03T14:32:45.465Z,20.24
2023-03-03T14:34:59.054Z,20.15
2023-03-03T14:37:21.651Z,20.05
2023-03-03T14:39:32.564Z,19.99
2023-03-03T14:41:41.009Z,19.89
2023-03-03T14:43:46.244Z,19.83
2023-03-03T14:45:48.093Z,19.77
2023-03-03T14:47:50.126Z,19.70
2023-03-03T14:49:52.754Z,19.63
2023-03-03T14:52:03.558Z,19.53
2023-03-03T14:54:14.333Z,19.47
2023-03-03T14:56:27.908Z,19.39
2023-03-03T14:58:41.354Z,19.28
2023-03-03T15:00:43.178Z,19.20
2023-03-03T15:02:49.866Z,19.13
2023-03-03T15:05:14.072Z,19.04
2023-03-03T15:07:37.309Z,18.93
2023-03-03T15:09:50.454Z,18.83
2023-03-03T15:11:54.214Z,18.78
2023-03-03T15:14:15.760Z,18.68
2023-03-03T15:16:25.350Z,18.59
2023-03-03T15:18:28.711Z,18.52
2023-03-03T15:20:48.233Z,18.41
2023-03-03T15:23:11.178Z,18.33
2023-03-03T15:25:42.205Z,18.22
2023-03-03T15:28:06.285Z,18.09
2023-03-03T15:30:47.587Z,17.97
2023-03-03T15:33:08.945Z,17.87
2023-03-03T15:35:20.577Z,17.80
2023-03-03T15:37:47.745Z,17.66
2023-03-03T15:40:04.512Z,17.57
2023-03-03T15:42:35.882Z,17.47
2023-03-03T15:45:06.611Z,17.35
2023-03-03T15:47:21.733Z,17.27
2023-03-03T15:49:41.922Z,17.17
2023-03-03T15:52:21.569Z,17.07
2023-03-03T15:54:47.429Z,16.96
2023-03-03T15:56:54.280Z,16.87
2023-03-03T15:59:10.700Z,16.78
2023-03-03T16:01:31.319Z,16.71
2023-03-03T16:03:47.219Z,16.59
2023-03-03T16:06:03.935Z,16.51
2023-03-03T16:08:17.635Z,16.42
2023-03-03T16:10:34.791Z,16.34
2023-03-03T16:12:44.149Z,16.27
2023-03-03T16:15:05.842Z,16.19
2023-03-03T16:17:32.668Z,16.10
2023-03-03T16:20:17.936Z,15.98
2023-03-03T16:22:40.807Z,15.91
2023-03-03T16:25:19.594Z,15.81
2023-03-03T16:27:46.099Z,15.70
2023-03-03T16:30:12.322Z,15.61
2023-03-03T16:32:25.841Z,15.52
2023-03-03T16:34:46.065Z,15.43
2023-03-03T16:37:12.530Z,15.36
2023-03-03T16:39:21.586Z,15.30
2023-03-03T16:41:51.371Z,15.24
2023-03-03T16:44:12.860Z,15.14
2023-03-03T16:46:33.297Z,15.06
2023-03-03T16:49:00.608Z,14.98
2023-03-03T16:51:27.795Z,14.90
2023-03-03T16:53:53.436Z,14.81
2023-03-03T16:56:22.881Z,14.74
2023-03-03T16:58:52.829Z,14.65
2023-03-03T17:01:32.462Z,14.57
2023-03-03T17:04:06.762Z,14.44
2023-03-03T17:06:31.398Z,14.36
2023-03-03T17:09:08.582Z,14.29
2023-03-03T17:11:22.866Z,14.20
2023-03-03T17:13:48.424Z,14.12
2023-03-03T17:16:04.292Z,14.06
2023-03-03T17:18:48.155Z,13.96
2023-03-03T17:20:56.547Z,13.90
2023-03-03T17:23:14.544Z,13.83
2023-03-03T17:25:40.420Z,13.73
2023-03-03T17:28:05.002Z,13.66
2023-03-03T17:30:25.400Z,13.57
2023-03-03T17:33:05.826Z,13.48
2023-03-03T17:35:22.717Z,13.37
2023-03-03T17:37:37.345Z,13.29
2023-03-03T17:39:45.026Z,13.21
2023-03-03T17:42:25.074Z,13.10
2023-03-03T17:44:49.457Z,13.00
2023-03-03T17:46:55.513Z,12.92
2023-03-03T17:49:18.363Z,12.82
2023-03-03T17:51:29.727Z,12.72
2023-03-03T17:54:03.821Z,12.62
2023-03-03T17:56:20.548Z,12.51
2023-03-03T17:58:45.152Z,12.42
2023-03-03T18:01:01.159Z,12.34
2023-03-03T18:03:33.964Z,12.23
2023-03-03T18:05:57.191Z,12.13
2023-03-03T18:08:06.240Z,12.01
2023-03-03T18:10:18.586Z,11.91
2023-03-03T18:12:44.985Z,11.82
2023-03-03T18:15:05.494Z,11.75
2023-03-03T18:17:25.905Z,11.67
2023-03-03T18:19:49.298Z,11.57
2023-03-03T18:22:11.200Z,11.46
2023-03-03T18:24:28.567Z,11.37
2023-03-03T18:26:36.692Z,11.26
2023-03-03T18:28:50.565Z,11.18
2023-03-03T18:31:00.645Z,11.12
2023-03-03T18:33:07.698Z,11.02
2023-03-03T18:35:33.781Z,10.94
2023-03-03T18:37:40.432Z,10.83
2023-03-03T18:39:45.997Z,10.77
2023-03-03T18:42:11.087Z,10.67
2023-03-03T18:44:30.520Z,10.60
2023-03-03T18:46:32.053Z,10.53
2023-03-03T18:49:01.403Z,10.45
2023-03-03T18:51:03.355Z,10.35
2023-03-03T18:53:11.122Z,10.26
2023-03-03T18:55:12.701Z,10.20
2023-03-03T18:57:18.543Z,10.11
2023-03-03T18:59:35.298Z,10.03
2023-03-03T19:01:44.913Z,9.98
2023-03-03T19:03:49.112Z,9.89
2023-03-03T19:05:57.637Z,9.83
2023-03-03T19:08:24.450Z,9.76
2023-03-03T19:10:44.484Z,9.65
2023-03-03T19:12:49.414Z,9.61
2023-03-03T19:14:51.049Z,9.54
2023-03-03T19:16:54.433Z,9.49
2023-03-03T19:18:55.956Z,9.44
2023-03-03T19:21:06.269Z,9.36
2023-03-03T19:23:20.378Z,9.29
2023-03-03T19:25:26.122Z,9.23
2023-03-03T19:27:39.860Z,9.17
2023-03-03T19:29:44.257Z,9.11
2023-03-03T19:32:08.450Z,9.03
2023-03-03T19:34:40.131Z,8.96
2023-03-03T19:36:57.193Z,8.88
2023-03-03T19:39:01.538Z,8.83
2023-03-03T19:41:41.721Z,8.74
2023-03-03T19:43:43.249Z,8.67
2023-03-03T19:46:09.762Z,8.63
2023-03-03T19:48:25.382Z,8.53
2023-03-03T19:50:42.752Z,8.47
2023-03-03T19:52:56.623Z,8.41
2023-03-03T19:55:16.570Z,8.32
2023-03-03T19:57:48.994Z,8.24
2023-03-03T20:00:02.942Z,8.19
2023-03-03T20:02:57.164Z,8.13
2023-03-03T20:05:21.192Z,8.05
2023-03-03T20:07:40.994Z,8.00
2023-03-03T20:09:55.455Z,7.93
2023-03-03T20:11:59.819Z,7.91
2023-03-03T20:14:23.878Z,7.83
2023-03-03T20:16:41.398Z,7.80
2023-03-03T20:19:02.449Z,7.74
2023-03-03T20:21:15.254Z,7.69
2023-03-03T20:23:39.943Z,7.62
2023-03-03T20:26:07.420Z,7.58
2023-03-03T20:28:31.713Z,7.55
2023-03-03T20:30:55.228Z,7.48
2023-03-03T20:33:11.196Z,7.43
2023-03-03T20:35:30.904Z,7.37
2023-03-03T20:37:52.616Z,7.33
2023-03-03T20:40:21.166Z,7.29
2023-03-03T20:42:42.012Z,7.23
2023-03-03T20:44:55.386Z,7.18
2023-03-03T20:47:23.208Z,7.14
2023-03-03T20:49:52.693Z,7.07
2023-03-03T20:52:03.569Z,7.02
2023-03-03T20:54:15.826Z,6.97
2023-03-03T20:56:41.597Z,6.92
2023-03-03T20:59:09.515Z,6.88
2023-03-03T21:01:17.806Z,6.83
2023-03-03T21:03:34.288Z,6.80
2023-03-03T21:05:54.878Z,6.77
2023-03-03T21:07:58.850Z,6.73
2023-03-03T21:10:23.950Z,6.66
2023-03-03T21:12:29.251Z,6.65
2023-03-03T21:14:35.772Z,6.64
2023-03-03T21:16:37.571Z,6.61
2023-03-03T21:18:39.641Z,6.58
2023-03-03T21:20:41.308Z,6.52
2023-03-03T21:22:42.970Z,6.49
2023-03-03T21:24:56.206Z,6.44
2023-03-03T21:27:00.274Z,6.43
2023-03-03T21:29:03.571Z,6.39
2023-03-03T21:31:13.378Z,6.37
2023-03-03T21:33:43.573Z,6.33
2023-03-03T21:35:58.724Z,6.29
2023-03-03T21:38:00.407Z,6.28
2023-03-03T21:40:23.398Z,6.23
2023-03-03T21:42:42.363Z,6.20
2023-03-03T21:44:51.822Z,6.16
2023-03-03T21:46:53.398Z,6.12
2023-03-03T21:48:55.048Z,6.08
2023-03-03T21:50:56.844Z,6.04
2023-03-03T21:52:58.431Z,6.00
2023-03-03T21:55:00.047Z,5.98
2023-03-03T21:57:01.654Z,5.95
2023-03-03T21:59:03.413Z,5.95
2023-03-03T22:01:06.662Z,5.91
2023-03-03T22:03:08.187Z,5.88
2023-03-03T22:05:09.963Z,5.83
2023-03-03T22:07:11.594Z,5.81
2023-03-03T22:09:13.275Z,5.78
2023-03-03T22:11:15.684Z,5.74
2023-03-03T22:13:20.067Z,5.70
2023-03-03T22:15:21.747Z,5.64
2023-03-03T22:17:25.576Z,5.65
2023-03-03T22:19:27.122Z,5.61
2023-03-03T22:21:29.813Z,5.57
2023-03-03T22:23:32.783Z,5.55
2023-03-03T22:25:34.366Z,5.52
2023-03-03T22:27:35.936Z,5.50
2023-03-03T22:29:37.494Z,5.47
2023-03-03T22:31:39.972Z,5.44
2023-03-03T22:33:41.923Z,5.43
2023-03-03T22:35:44.005Z,5.41
2023-03-03T22:37:45.580Z,5.37
2023-03-03T22:39:48.461Z,5.35
2023-03-03T22:41:50.052Z,5.31
2023-03-03T22:43:51.653Z,5.28
2023-03-03T22:45:53.384Z,5.25
2023-03-03T22:47:55.005Z,5.23
2023-03-03T22:49:56.680Z,5.22
2023-03-03T22:51:58.921Z,5.20
2023-03-03T22:54:00.493Z,5.17
2023-03-03T22:56:02.147Z,5.14
2023-03-03T22:58:04.619Z,5.14
2023-03-03T23:00:09.001Z,5.11
2023-03-03T23:02:10.552Z,5.07
2023-03-03T23:04:12.109Z,5.04
2023-03-03T23:06:13.771Z,5.00
2023-03-03T23:08:17.461Z,4.99
2023-03-03T23:10:19.539Z,4.98
2023-03-03T23:12:21.136Z,4.94
2023-03-03T23:14:22.729Z,4.91
2023-03-03T23:16:24.530Z,4.88
2023-03-03T23:18:28.335Z,4.86
2023-03-03T23:20:31.610Z,4.83
2023-03-03T23:22:33.192Z,4.80
2023-03-03T23:24:34.868Z,4.78
2023-03-03T23:26:37.295Z,4.75
2023-03-03T23:28:38.903Z,4.73
2023-03-03T23:30:40.524Z,4.72
2023-03-03T23:32:42.383Z,4.69
2023-03-03T23:34:44.171Z,4.69
2023-03-03T23:36:45.865Z,4.66
2023-03-03T23:38:47.516Z,4.61
2023-03-03T23:40:49.124Z,4.59
2023-03-03T23:42:50.883Z,4.57
2023-03-03T23:44:52.608Z,4.54
2023-03-03T23:46:54.242Z,4.50
2023-03-03T23:48:55.875Z,4.49
2023-03-03T23:50:57.603Z,4.47
2023-03-03T23:52:59.297Z,4.45
2023-03-03T23:55:01.549Z,4.41
2023-03-03T23:57:03.538Z,4.40
2023-03-03T23:59:05.069Z,4.37
